Главная страница
METAR-TAF:

METAR-TAF

Аэропорты :

Фааа

Таити, Французская Полинезия

широта: 17-33S, долгота: 149-37W, высота над уровнем моря: 2 м

Текущие метеонаблюдения

Эта сводка был подготовлена 17 минут назад, в 22:00 UTC
Ветер 13 Узел от восточно-северо-восточный
Температура 32°C
Влажность 52%
Давление 1012 hPa
Видимость 10 км и более
небольшая облачность на высоте 2300 фута

METAR: NTAA 232200Z 07013KT 9999 FEW023 32/21 Q1012 NOSIG

Время: 12:17 (22:17 UTC)

Прогноз

Эта сводка был подготовлена 5 часа и 17 минут назад, в 17:00 UTC
Прогноз действительный с 23-го 18 UTC до 24-го 24 UTC
Ветер 12 Узел от восточно-северо-восточный
Видимость 10 км и более
небольшая облачность на высоте 2000 фута
Отдельные облака на высоте 5000 фута
изменения
С 24-го 02 UTC до 24-го 04 UTC
Ветер 3 Узел переменных направлений

TAF: NTAA 231700Z 2318/2424 07012KT 9999 FEW020 SCT050 BECMG 2402/2404 VRB03KT

Метеонаблюдения и прогнозы для более 4000 аэропортов (сводки METAR и TAF).

Имеющиеся станции представлены на карте желтыми и красными точками.

Чтобы увидеть название станции, наведите на нее мышь.

Затем щелкните, чтобы увидеть метеонаблюдения и метеопрогнозы.

Управление картой: чтобы увеличить масштаб, щелкните зеленые кнопки с черным крестиком; чтобы уменьшить масштаб, щелкните зеленую кнопку с тире; для просмотра соседних карт щелкайте зеленые стрелки.


METAR-TAF: